Time;durP1;ratioP1;P1;durP2;ratioP2;P2;SDS_P1;SDS_P2;PMS_P1;PMS_P2;Temp;Humidity;BMP_temperature;BMP_pressure;BME280_temperature;BME280_humidity;BME280_pressure;Samples;Min_cycle;Max_cycle;Signal;HPM_P1;HPM_P2
2021/12/06 00:01:34;;;;;;;75.55;26.65;;;;;;;-2.66;100.00;99045.94;5150783;27;20574;-50
2021/12/06 00:04:06;;;;;;;65.28;24.90;;;;;;;-2.56;100.00;99042.38;5150577;27;20078;-50
2021/12/06 00:06:34;;;;;;;67.63;25.30;;;;;;;-2.52;100.00;99040.72;5151014;27;20047;-50
2021/12/06 00:09:02;;;;;;;56.35;24.73;;;;;;;-2.61;100.00;99053.94;5150877;27;20398;-53
2021/12/06 00:11:29;;;;;;;72.55;25.90;;;;;;;-2.64;100.00;99060.66;5150475;27;20135;-50
2021/12/06 00:13:55;;;;;;;70.05;26.63;;;;;;;-2.60;100.00;99055.53;5150476;27;20567;-50
2021/12/06 00:16:23;;;;;;;63.05;26.77;;;;;;;-2.55;100.00;99050.13;5150538;27;20046;-51
2021/12/06 00:18:51;;;;;;;72.47;26.38;;;;;;;-2.59;100.00;99065.19;5151752;27;20141;-52
2021/12/06 00:21:18;;;;;;;69.40;25.75;;;;;;;-2.64;100.00;99063.34;5153976;27;20053;-50
2021/12/06 00:23:44;;;;;;;66.78;24.63;;;;;;;-2.60;100.00;99055.53;5153792;27;20056;-51
2021/12/06 00:26:11;;;;;;;69.80;27.30;;;;;;;-2.58;100.00;99056.06;5154010;27;20133;-50
2021/12/06 00:28:38;;;;;;;70.70;27.38;;;;;;;-2.58;100.00;99061.41;5154152;27;20050;-50
2021/12/06 00:31:05;;;;;;;72.28;25.85;;;;;;;-2.61;100.00;99057.41;5153855;27;20425;-53
2021/12/06 00:33:32;;;;;;;66.65;27.65;;;;;;;-2.64;100.00;99052.59;5153359;27;20469;-50
2021/12/06 00:36:03;;;;;;;69.15;27.10;;;;;;;-2.64;100.00;99057.97;5153895;27;20050;-49
2021/12/06 00:38:30;;;;;;;63.45;25.90;;;;;;;-2.67;100.00;99063.88;5153970;27;20141;-49
2021/12/06 00:40:58;;;;;;;63.35;25.23;;;;;;;-2.67;100.00;99063.88;5153736;27;20106;-50
2021/12/06 00:43:25;;;;;;;71.53;25.73;;;;;;;-2.68;100.00;99064.97;5153656;27;20047;-54
2021/12/06 00:45:51;;;;;;;70.72;27.45;;;;;;;-2.70;100.00;99067.16;5153474;27;20076;-50
2021/12/06 00:48:18;;;;;;;71.70;27.13;;;;;;;-2.75;100.00;99069.88;5153516;27;20054;-50
2021/12/06 00:50:45;;;;;;;66.25;25.42;;;;;;;-2.74;100.00;99059.94;5153559;27;20047;-50
2021/12/06 00:53:12;;;;;;;76.95;27.15;;;;;;;-2.68;100.00;99058.81;5153480;27;20046;-50
2021/12/06 00:55:39;;;;;;;71.03;25.73;;;;;;;-2.67;100.00;99055.84;5153506;27;20417;-50
2021/12/06 00:58:05;;;;;;;65.65;26.90;;;;;;;-2.70;100.00;99048.38;5153132;27;20101;-53
2021/12/06 01:00:35;;;;;;;65.07;25.90;;;;;;;-2.66;100.00;99040.56;5153409;27;20134;-50
2021/12/06 01:03:03;;;;;;;62.50;25.33;;;;;;;-2.71;100.00;99041.38;5153393;27;20053;-51
2021/12/06 01:05:30;;;;;;;62.10;25.45;;;;;;;-2.76;100.00;99043.31;5153318;27;20053;-49
2021/12/06 01:07:56;;;;;;;60.05;25.77;;;;;;;-2.76;100.00;99040.66;5153231;27;20057;-50
2021/12/06 01:10:24;;;;;;;69.22;25.63;;;;;;;-2.71;100.00;99048.63;5153299;27;20043;-51
2021/12/06 01:12:51;;;;;;;64.80;26.23;;;;;;;-2.71;100.00;99048.63;5153050;27;20050;-50
2021/12/06 01:15:17;;;;;;;71.05;27.10;;;;;;;-2.67;100.00;99044.31;5153214;27;20051;-50
2021/12/06 01:17:44;;;;;;;68.30;26.35;;;;;;;-2.68;100.00;99045.41;5153265;27;20500;-50
2021/12/06 01:20:14;;;;;;;71.25;27.92;;;;;;;-2.66;100.00;99048.63;5153021;27;20047;-52
2021/12/06 01:22:45;;;;;;;63.53;26.40;;;;;;;-2.59;100.00;99057.13;5153695;27;20515;-49
2021/12/06 01:25:25;;;;;;;69.60;25.92;;;;;;;-2.59;100.00;99067.09;5152889;27;20163;-51
2021/12/06 01:28:19;;;;;;;65.53;25.08;;;;;;;-2.57;100.00;99083.69;5153366;27;20050;-50
2021/12/06 01:30:57;;;;;;;63.42;25.88;;;;;;;-2.52;100.00;99081.78;5152596;27;20106;-51
2021/12/06 01:34:03;;;;;;;69.43;26.75;;;;;;;-2.63;100.00;99083.75;5152482;27;20512;-51
2021/12/06 01:39:16;;;;;;;65.15;26.42;;;;;;;-2.61;100.00;99083.44;5152939;27;20149;-53
2021/12/06 01:41:46;;;;;;;70.90;26.90;;;;;;;-2.54;100.00;99075.88;5152594;27;20047;-51
2021/12/06 01:44:16;;;;;;;72.70;28.23;;;;;;;-2.51;100.00;99079.88;5152512;27;20050;-54
2021/12/06 01:46:45;;;;;;;72.93;28.33;;;;;;;-2.50;100.00;99081.47;5152774;27;20054;-51
2021/12/06 01:49:12;;;;;;;81.35;29.02;;;;;;;-2.57;100.00;99076.44;5152673;27;20493;-50
2021/12/06 01:51:39;;;;;;;78.07;28.27;;;;;;;-2.74;100.00;99076.03;5152440;27;20675;-51
2021/12/06 01:54:08;;;;;;;85.70;28.38;;;;;;;-2.78;100.00;99069.63;5152680;27;20051;-51
2021/12/06 01:56:35;;;;;;;76.85;27.52;;;;;;;-2.74;100.00;99058.03;5152503;27;20081;-51
2021/12/06 01:59:01;;;;;;;73.75;29.77;;;;;;;-2.68;100.00;99046.19;5152473;27;20055;-50
2021/12/06 02:01:28;;;;;;;72.85;29.05;;;;;;;-2.62;100.00;99045.06;5152401;27;20095;-53
2021/12/06 02:03:54;;;;;;;78.10;27.70;;;;;;;-2.63;100.00;99030.06;5152232;27;20043;-51
2021/12/06 02:06:21;;;;;;;70.60;29.38;;;;;;;-2.64;100.00;99033.00;5152483;27;20042;-50
2021/12/06 02:08:47;;;;;;;73.72;28.95;;;;;;;-2.67;100.00;99028.22;5152221;27;20047;-54
2021/12/06 02:11:13;;;;;;;80.60;29.25;;;;;;;-2.60;100.00;99017.94;5152125;27;20501;-50
2021/12/06 02:13:47;;;;;;;71.55;27.77;;;;;;;-2.57;100.00;99006.66;5152119;27;20081;-50
2021/12/06 02:16:14;;;;;;;79.57;29.00;;;;;;;-2.58;100.00;99012.31;5152422;27;20121;-50
2021/12/06 02:18:43;;;;;;;79.18;28.20;;;;;;;-2.60;100.00;99009.91;5152294;27;20046;-50
2021/12/06 02:21:12;;;;;;;83.80;30.33;;;;;;;-2.50;100.00;99009.84;5152243;27;20049;-50
2021/12/06 02:23:39;;;;;;;72.68;27.88;;;;;;;-2.49;100.00;99013.31;5151934;27;20050;-52
2021/12/06 02:26:05;;;;;;;76.25;29.90;;;;;;;-2.50;100.00;99017.88;5152190;27;20042;-50
2021/12/06 02:28:32;;;;;;;81.47;30.02;;;;;;;-2.53;100.00;99006.88;5152155;27;20428;-50
2021/12/06 02:30:58;;;;;;;83.70;29.75;;;;;;;-2.54;100.00;99008.78;5151797;27;20470;-50
2021/12/06 02:33:25;;;;;;;73.57;29.67;;;;;;;-2.59;100.00;99003.47;5151615;27;20046;-51
2021/12/06 02:35:52;;;;;;;72.03;29.75;;;;;;;-2.51;100.00;99005.53;5151786;27;20142;-50
2021/12/06 02:38:19;;;;;;;77.03;30.10;;;;;;;-2.53;100.00;99010.41;5151705;27;20069;-50
2021/12/06 02:40:46;;;;;;;75.88;28.75;;;;;;;-2.50;100.00;99006.31;5151247;27;20065;-50
2021/12/06 02:43:14;;;;;;;79.38;30.80;;;;;;;-2.58;100.00;99007.75;5152017;27;20461;-51
2021/12/06 02:45:41;;;;;;;78.93;31.30;;;;;;;-2.64;100.00;98998.94;5151767;27;20043;-51
2021/12/06 02:48:10;;;;;;;79.00;31.55;;;;;;;-2.51;100.00;98994.00;5151889;27;20501;-50
2021/12/06 02:50:41;;;;;;;83.10;28.40;;;;;;;-2.57;100.00;98995.13;5151620;27;20402;-49
2021/12/06 02:53:08;;;;;;;95.32;32.53;;;;;;;-2.46;100.00;98991.28;5151674;27;20519;-50
2021/12/06 02:55:36;;;;;;;78.03;29.33;;;;;;;-2.43;100.00;99001.44;5151664;27;20049;-50
2021/12/06 02:58:14;;;;;;;87.15;31.27;;;;;;;-2.42;100.00;98994.97;5151524;27;20591;-50
2021/12/06 03:00:43;;;;;;;74.55;28.17;;;;;;;-2.40;100.00;99000.84;5151846;27;20058;-51
2021/12/06 03:03:09;;;;;;;80.50;29.77;;;;;;;-2.42;100.00;98993.09;5151181;27;20522;-51
2021/12/06 03:05:36;;;;;;;84.47;30.48;;;;;;;-2.29;100.00;98998.88;5151502;27;20050;-50
2021/12/06 03:08:03;;;;;;;84.45;31.45;;;;;;;-2.18;100.00;98992.31;5151543;27;20046;-50
2021/12/06 03:10:30;;;;;;;88.28;30.33;;;;;;;-2.28;100.00;99009.34;5151630;27;20082;-50
2021/12/06 03:12:58;;;;;;;83.18;31.00;;;;;;;-2.38;100.00;99018.28;5151570;27;20499;-50
2021/12/06 03:15:25;;;;;;;83.47;30.88;;;;;;;-2.37;100.00;99017.22;5151295;27;20042;-50
2021/12/06 03:17:51;;;;;;;75.85;28.10;;;;;;;-2.31;100.00;99017.16;5151282;27;20050;-50
2021/12/06 03:20:17;;;;;;;87.25;28.95;;;;;;;-2.38;100.00;99010.22;5151490;27;20062;-50
2021/12/06 03:22:45;;;;;;;85.72;30.50;;;;;;;-2.32;100.00;99013.69;5151678;27;20146;-49
2021/12/06 03:25:14;;;;;;;84.00;30.88;;;;;;;-2.30;100.00;99011.53;5151442;27;20049;-50
2021/12/06 03:27:40;;;;;;;81.07;30.08;;;;;;;-2.37;100.00;99014.53;5151210;27;20054;-50
2021/12/06 03:30:13;;;;;;;86.93;31.08;;;;;;;-2.42;100.00;99005.72;5151046;27;20046;-51
2021/12/06 03:32:40;;;;;;;98.25;30.33;;;;;;;-2.40;100.00;98998.16;5150716;27;20046;-50
2021/12/06 03:35:08;;;;;;;88.20;29.45;;;;;;;-2.38;100.00;98985.28;5150890;27;20077;-50
2021/12/06 03:37:34;;;;;;;83.05;30.45;;;;;;;-2.39;100.00;98986.38;5151150;27;20094;-51
2021/12/06 03:40:00;;;;;;;87.53;31.45;;;;;;;-2.32;100.00;98973.41;5150985;27;20126;-51
2021/12/06 03:42:27;;;;;;;95.32;30.40;;;;;;;-2.25;100.00;98973.06;5151179;27;20062;-51
2021/12/06 03:44:53;;;;;;;94.30;32.25;;;;;;;-2.26;100.00;98958.84;5150846;27;20078;-51
2021/12/06 03:47:24;;;;;;;93.28;30.95;;;;;;;-2.25;100.00;98955.06;5151212;27;20133;-50
2021/12/06 03:49:51;;;;;;;89.93;31.98;;;;;;;-2.21;100.00;98950.72;5150774;27;20042;-49
2021/12/06 03:52:18;;;;;;;93.95;31.08;;;;;;;-2.21;100.00;98949.91;5150831;27;20051;-49
2021/12/06 03:54:45;;;;;;;101.25;32.92;;;;;;;-2.21;100.00;98949.91;5153836;27;20047;-50
2021/12/06 03:57:12;;;;;;;97.45;31.90;;;;;;;-2.25;100.00;98938.16;5154250;27;20050;-53
2021/12/06 03:59:38;;;;;;;98.30;34.13;;;;;;;-2.15;100.00;98933.47;5154391;27;20050;-50
2021/12/06 04:02:05;;;;;;;104.57;33.25;;;;;;;-2.15;100.00;98943.41;5154422;27;20054;-50
2021/12/06 04:04:32;;;;;;;103.53;30.48;;;;;;;-2.19;100.00;98927.06;5154251;27;20092;-52
2021/12/06 04:06:58;;;;;;;92.05;33.05;;;;;;;-2.16;100.00;98926.50;5154312;27;20092;-52
2021/12/06 04:09:25;;;;;;;100.55;31.08;;;;;;;-2.15;100.00;98919.25;5154245;27;20130;-51
2021/12/06 04:11:52;;;;;;;98.90;31.45;;;;;;;-2.20;100.00;98917.44;5154131;27;20432;-50
2021/12/06 04:14:18;;;;;;;100.80;33.45;;;;;;;-2.23;100.00;98911.78;5154160;27;20089;-52
2021/12/06 04:16:45;;;;;;;95.45;32.35;;;;;;;-2.29;100.00;98907.59;5154262;27;20505;-50
2021/12/06 04:19:11;;;;;;;101.93;30.95;;;;;;;-2.26;100.00;98899.78;5154093;27;20050;-52
2021/12/06 04:21:42;;;;;;;88.05;31.65;;;;;;;-2.27;100.00;98900.84;5153951;27;20137;-51
2021/12/06 04:24:09;;;;;;;96.85;31.80;;;;;;;-2.36;100.00;98902.56;5153876;27;20056;-50
2021/12/06 04:26:36;;;;;;;90.82;32.00;;;;;;;-2.26;100.00;98890.91;5153833;27;20054;-53
2021/12/06 04:29:03;;;;;;;108.85;32.17;;;;;;;-2.24;100.00;98886.84;5153892;27;20077;-49
2021/12/06 04:31:33;;;;;;;92.68;32.90;;;;;;;-2.31;100.00;98890.97;5154212;27;20057;-51
2021/12/06 04:33:59;;;;;;;99.57;31.75;;;;;;;-2.38;100.00;98881.38;5153415;27;20130;-53
2021/12/06 04:36:26;;;;;;;82.10;29.80;;;;;;;-2.23;100.00;98871.53;5153867;27;20445;-51
2021/12/06 04:38:53;;;;;;;88.18;30.00;;;;;;;-2.36;100.00;98873.03;5153692;27;20055;-50
2021/12/06 04:41:20;;;;;;;83.38;30.88;;;;;;;-2.26;100.00;98861.38;5153846;27;20137;-51
2021/12/06 04:43:47;;;;;;;105.25;33.47;;;;;;;-2.21;100.00;98861.31;5153667;27;20069;-50
2021/12/06 04:46:13;;;;;;;95.90;30.60;;;;;;;-2.24;100.00;98881.47;5153723;27;20042;-50
2021/12/06 04:48:39;;;;;;;99.38;32.65;;;;;;;-2.17;100.00;98876.53;5153432;27;20060;-50
2021/12/06 04:51:06;;;;;;;95.18;30.98;;;;;;;-2.09;100.00;98877.00;5153581;27;20050;-50
2021/12/06 04:53:36;;;;;;;112.10;33.10;;;;;;;-2.18;100.00;98880.31;5153151;27;20406;-51
2021/12/06 04:56:15;;;;;;;91.57;31.55;;;;;;;-2.10;100.00;98864.66;5153307;27;20050;-50
2021/12/06 04:58:48;;;;;;;87.93;29.92;;;;;;;-2.14;100.00;98875.97;5153545;27;20054;-61
2021/12/06 05:01:18;;;;;;;99.60;33.42;;;;;;;-1.93;100.00;98864.97;5153306;27;20078;-58
2021/12/06 05:03:45;;;;;;;96.70;31.98;;;;;;;-1.72;100.00;98860.09;5153151;27;20051;-58
2021/12/06 05:06:14;;;;;;;101.90;33.58;;;;;;;-1.62;100.00;98857.25;5152951;27;20519;-59
2021/12/06 05:08:43;;;;;;;94.05;31.13;;;;;;;-1.56;100.00;98866.84;5153284;27;20057;-61
2021/12/06 05:11:11;;;;;;;87.03;30.60;;;;;;;-1.38;100.00;98864.44;5153190;27;20441;-61
2021/12/06 05:13:40;;;;;;;97.30;31.60;;;;;;;-1.41;100.00;98876.56;5153050;27;20078;-57
2021/12/06 05:16:07;;;;;;;80.57;29.55;;;;;;;-1.35;100.00;98894.22;5153238;27;20101;-55
2021/12/06 05:18:33;;;;;;;96.10;32.47;;;;;;;-1.36;100.00;98910.66;5152849;27;20051;-53
2021/12/06 05:20:59;;;;;;;102.18;33.10;;;;;;;-1.46;100.00;98938.50;5152681;27;20103;-52
2021/12/06 05:23:26;;;;;;;89.68;32.83;;;;;;;-1.35;100.00;98929.19;5152873;27;20090;-54
2021/12/06 05:25:52;;;;;;;90.90;30.10;;;;;;;-1.42;100.00;98929.53;5153198;27;20118;-52
2021/12/06 05:28:22;;;;;;;86.57;30.85;;;;;;;-1.37;100.00;98946.69;5152074;27;20047;-56
2021/12/06 05:30:54;;;;;;;84.00;30.75;;;;;;;-1.37;100.00;98944.78;5152761;27;20069;-54
2021/12/06 05:33:29;;;;;;;83.80;30.40;;;;;;;-1.33;100.00;98956.59;5151923;27;20095;-51
2021/12/06 05:35:56;;;;;;;95.43;32.92;;;;;;;-1.32;100.00;98965.44;5152317;27;20554;-55
2021/12/06 05:38:22;;;;;;;84.07;29.17;;;;;;;-1.34;100.00;98973.78;5152043;27;20053;-56
2021/12/06 05:40:48;;;;;;;73.90;27.80;;;;;;;-1.36;100.00;98985.97;5152608;27;20051;-55
2021/12/06 05:43:15;;;;;;;83.10;30.10;;;;;;;-1.39;100.00;98987.31;5152445;27;20111;-56
2021/12/06 05:45:41;;;;;;;86.93;31.58;;;;;;;-1.46;100.00;99000.34;5152517;27;20553;-56
2021/12/06 05:48:08;;;;;;;81.72;29.52;;;;;;;-1.43;100.00;98997.06;5152328;27;20053;-56
2021/12/06 05:50:34;;;;;;;75.18;29.02;;;;;;;-1.34;100.00;99007.97;5152592;27;20051;-57
2021/12/06 05:53:01;;;;;;;83.93;30.30;;;;;;;-1.26;100.00;99013.50;5152227;27;20569;-55
2021/12/06 05:55:28;;;;;;;94.63;31.17;;;;;;;-1.17;100.00;99015.53;5152135;27;20532;-57
2021/12/06 05:57:54;;;;;;;71.40;29.45;;;;;;;-1.17;100.00;99026.28;5151462;27;20050;-56
2021/12/06 06:00:21;;;;;;;82.05;29.67;;;;;;;-1.20;100.00;99035.72;5152357;27;20074;-57
2021/12/06 06:02:49;;;;;;;76.43;29.23;;;;;;;-1.19;100.00;99048.09;5152200;27;20042;-55
2021/12/06 06:05:18;;;;;;;68.30;26.30;;;;;;;-1.23;100.00;99058.66;5151932;27;20084;-60
2021/12/06 06:07:44;;;;;;;65.47;24.55;;;;;;;-1.12;100.00;99080.03;5151786;27;20050;-60
2021/12/06 06:10:11;;;;;;;111.45;33.67;;;;;;;-1.03;100.00;99079.09;5147687;27;20413;-58
2021/12/06 06:12:37;;;;;;;58.50;23.55;;;;;;;-1.09;100.00;99107.16;5151694;27;20089;-55
2021/12/06 06:15:05;;;;;;;61.90;24.98;;;;;;;-1.00;100.00;99110.81;5151615;27;20092;-54
2021/12/06 06:17:39;;;;;;;54.97;23.88;;;;;;;-1.00;100.00;99132.34;5150678;27;20046;-53
2021/12/06 06:20:10;;;;;;;95.68;30.60;;;;;;;-1.06;100.00;99138.88;5151659;27;20070;-51
2021/12/06 06:22:36;;;;;;;56.13;21.67;;;;;;;-1.09;100.00;99144.81;5151995;27;20049;-51
2021/12/06 06:25:02;;;;;;;57.17;23.15;;;;;;;-1.03;100.00;99150.94;5151230;27;20057;-50
2021/12/06 06:27:28;;;;;;;69.15;25.48;;;;;;;-1.16;100.00;99173.16;5151645;27;20429;-51
2021/12/06 06:29:55;;;;;;;99.57;33.20;;;;;;;-1.21;100.00;99182.09;5151212;27;20046;-53
2021/12/06 06:32:21;;;;;;;78.70;29.08;;;;;;;-1.17;100.00;99182.31;5151402;27;20173;-50
2021/12/06 06:34:47;;;;;;;61.40;24.63;;;;;;;-1.10;100.00;99183.59;5148799;27;20046;-52
2021/12/06 06:37:14;;;;;;;66.03;25.75;;;;;;;-1.21;100.00;99187.47;5134398;27;20061;-52
2021/12/06 06:39:40;;;;;;;62.70;24.50;;;;;;;-1.33;100.00;99193.25;5151541;27;20078;-56
2021/12/06 06:42:07;;;;;;;64.32;25.58;;;;;;;-1.41;100.00;99188.47;5151263;27;20046;-55
2021/12/06 06:44:33;;;;;;;61.63;23.55;;;;;;;-1.46;100.00;99200.09;5150994;27;20082;-59
2021/12/06 06:47:00;;;;;;;61.92;23.90;;;;;;;-1.43;100.00;99185.31;5150827;27;20524;-58
2021/12/06 06:49:30;;;;;;;69.57;25.70;;;;;;;-1.37;100.00;99194.09;5151284;27;20093;-59
2021/12/06 06:51:57;;;;;;;64.57;25.35;;;;;;;-1.32;100.00;99197.53;5151374;27;20405;-58
2021/12/06 06:54:24;;;;;;;70.60;27.25;;;;;;;-1.47;100.00;99195.78;5150592;27;20548;-57
2021/12/06 06:56:50;;;;;;;75.20;30.75;;;;;;;-1.55;100.00;99201.81;5151030;27;20082;-57
2021/12/06 06:59:16;;;;;;;60.13;24.13;;;;;;;-1.51;100.00;99189.38;5151286;27;20054;-58
2021/12/06 07:01:45;;;;;;;57.22;23.27;;;;;;;-1.55;100.00;99192.94;5151063;27;20057;-59
2021/12/06 07:04:11;;;;;;;54.85;22.27;;;;;;;-1.56;100.00;99189.47;5150646;27;20054;-58
2021/12/06 07:06:38;;;;;;;61.90;23.35;;;;;;;-1.56;100.00;99183.28;5150865;27;20141;-58
2021/12/06 07:09:06;;;;;;;55.55;22.20;;;;;;;-1.62;100.00;99187.91;5146252;27;20099;-57
2021/12/06 07:11:33;;;;;;;64.47;24.60;;;;;;;-1.50;100.00;99182.13;5150199;27;20051;-56
2021/12/06 07:13:59;;;;;;;61.80;24.13;;;;;;;-1.44;100.00;99173.72;5150819;27;20410;-59
2021/12/06 07:16:26;;;;;;;54.33;23.13;;;;;;;-1.41;100.00;99177.72;5151008;27;20440;-59
2021/12/06 07:18:53;;;;;;;59.17;23.42;;;;;;;-1.43;100.00;99174.53;5150501;27;20047;-58
2021/12/06 07:21:19;;;;;;;58.60;23.65;;;;;;;-1.56;100.00;99184.06;5150705;27;20047;-59
2021/12/06 07:23:46;;;;;;;67.60;24.77;;;;;;;-1.61;100.00;99186.81;5151082;27;20047;-59
2021/12/06 07:26:14;;;;;;;66.25;25.23;;;;;;;-1.60;100.00;99179.53;5150586;27;20069;-59
2021/12/06 07:28:43;;;;;;;64.28;24.95;;;;;;;-1.61;100.00;99176.06;5153173;27;20138;-58
2021/12/06 07:31:12;;;;;;;58.20;23.00;;;;;;;-1.56;100.00;99178.69;5150087;27;20058;-57
2021/12/06 07:33:39;;;;;;;55.17;23.30;;;;;;;-1.54;100.00;99176.50;5154149;27;20051;-59
2021/12/06 07:36:07;;;;;;;55.70;22.92;;;;;;;-1.49;100.00;99173.78;5154430;27;20138;-59
2021/12/06 07:38:34;;;;;;;60.10;24.00;;;;;;;-1.52;100.00;99176.25;5154335;27;20051;-58
2021/12/06 07:41:01;;;;;;;61.92;24.23;;;;;;;-1.51;100.00;99169.78;5154414;27;20069;-59
2021/12/06 07:43:27;;;;;;;62.03;25.08;;;;;;;-1.39;100.00;99172.88;5154386;27;20042;-58
2021/12/06 07:45:54;;;;;;;63.28;24.95;;;;;;;-1.27;100.00;99180.53;5154137;27;20111;-58
2021/12/06 07:48:21;;;;;;;65.47;24.00;;;;;;;-1.24;100.00;99186.13;5153772;27;20425;-59
2021/12/06 07:50:47;;;;;;;65.78;23.98;;;;;;;-1.18;100.00;99192.28;5154444;27;20201;-58
2021/12/06 07:53:13;;;;;;;67.65;25.63;;;;;;;-1.29;100.00;99191.59;5154012;27;20053;-57
2021/12/06 07:55:40;;;;;;;61.08;26.30;;;;;;;-1.29;100.00;99196.97;5154030;27;20137;-59
2021/12/06 07:58:08;;;;;;;64.55;25.02;;;;;;;-1.19;100.00;99202.25;5154025;27;20054;-59
2021/12/06 08:00:36;;;;;;;64.85;24.83;;;;;;;-1.15;100.00;99205.16;5154014;27;20053;-58
2021/12/06 08:03:04;;;;;;;63.92;24.60;;;;;;;-1.09;100.00;99198.63;5154001;27;20524;-58
2021/12/06 08:05:31;;;;;;;55.05;24.48;;;;;;;-1.05;100.00;99205.03;5153756;27;20066;-59
2021/12/06 08:07:58;;;;;;;60.42;24.73;;;;;;;-1.01;100.00;99203.38;5153843;27;20529;-59
2021/12/06 08:10:24;;;;;;;64.55;24.55;;;;;;;-1.05;100.00;99199.66;5154181;27;20398;-59
2021/12/06 08:12:50;;;;;;;54.08;23.63;;;;;;;-1.25;100.00;99206.06;5153900;27;20052;-58
2021/12/06 08:15:17;;;;;;;63.95;22.88;;;;;;;-1.24;100.00;99215.72;5153324;27;20088;-59
2021/12/06 08:17:44;;;;;;;58.38;23.65;;;;;;;-1.20;100.00;99213.28;5153127;27;20078;-59
2021/12/06 08:20:11;;;;;;;59.65;22.40;;;;;;;-1.17;100.00;99214.59;5150419;27;20049;-58
2021/12/06 08:22:38;;;;;;;55.65;21.45;;;;;;;-1.26;100.00;99223.31;5139166;27;20152;-54
2021/12/06 08:25:07;;;;;;;53.13;23.23;;;;;;;-1.32;100.00;99232.50;5153407;27;20054;-60
2021/12/06 08:27:33;;;;;;;63.92;23.63;;;;;;;-1.32;100.00;99229.03;5153880;27;20090;-59
2021/12/06 08:30:00;;;;;;;53.28;20.25;;;;;;;-1.32;100.00;99221.75;5153466;27;20046;-58
2021/12/06 08:32:26;;;;;;;53.95;21.85;;;;;;;-1.38;100.00;99227.47;5153129;27;20047;-57
2021/12/06 08:34:52;;;;;;;53.55;21.20;;;;;;;-1.44;100.00;99235.56;5152823;27;20051;-59
2021/12/06 08:37:20;;;;;;;52.83;23.23;;;;;;;-1.43;100.00;99221.06;5153344;27;20672;-57
2021/12/06 08:39:46;;;;;;;53.95;22.98;;;;;;;-1.38;100.00;99217.50;5152004;27;20547;-58
2021/12/06 08:42:12;;;;;;;51.78;21.48;;;;;;;-1.33;100.00;99219.31;5153396;27;20195;-59
2021/12/06 08:44:39;;;;;;;52.03;22.15;;;;;;;-1.27;100.00;99216.28;5153618;27;20107;-58
2021/12/06 08:47:05;;;;;;;57.65;22.80;;;;;;;-1.25;100.00;99227.59;5153089;27;20051;-56
2021/12/06 08:49:32;;;;;;;58.00;23.15;;;;;;;-1.28;100.00;99219.28;5153367;27;20050;-58
2021/12/06 08:51:58;;;;;;;57.25;22.60;;;;;;;-1.20;100.00;99205.19;5152878;27;20099;-59
2021/12/06 08:54:27;;;;;;;50.58;22.17;;;;;;;-1.30;100.00;99206.13;5152873;27;20103;-59
2021/12/06 08:56:55;;;;;;;56.70;23.33;;;;;;;-1.25;100.00;99207.97;5153048;27;20050;-58
2021/12/06 08:59:22;;;;;;;57.45;23.48;;;;;;;-1.16;100.00;99195.50;5152964;27;20050;-57
2021/12/06 09:01:49;;;;;;;58.90;24.52;;;;;;;-1.13;100.00;99205.69;5153238;27;20531;-53
2021/12/06 09:04:16;;;;;;;60.92;25.38;;;;;;;-1.19;100.00;99199.53;5152719;27;20093;-59
2021/12/06 09:06:46;;;;;;;62.92;25.90;;;;;;;-1.09;100.00;99187.06;5152665;27;20433;-58
2021/12/06 09:09:13;;;;;;;62.67;24.55;;;;;;;-1.13;100.00;99197.59;5153276;27;20046;-59
2021/12/06 09:11:42;;;;;;;51.55;22.48;;;;;;;-1.40;100.00;99192.78;5153433;27;20541;-58
2021/12/06 09:14:09;;;;;;;60.35;23.77;;;;;;;-1.39;100.00;99194.38;5152941;27;20053;-58
2021/12/06 09:16:37;;;;;;;58.33;22.70;;;;;;;-1.40;100.00;99189.28;5153537;27;20600;-59
2021/12/06 09:19:05;;;;;;;58.50;23.95;;;;;;;-1.47;100.00;99179.66;5152664;27;20527;-59
2021/12/06 09:21:33;;;;;;;56.83;21.52;;;;;;;-1.38;100.00;99176.38;5152738;27;20070;-58
2021/12/06 09:24:00;;;;;;;61.58;23.25;;;;;;;-1.31;100.00;99177.63;5152822;27;20042;-59
2021/12/06 09:26:28;;;;;;;56.72;23.25;;;;;;;-1.27;100.00;99164.41;5153121;27;20050;-59
2021/12/06 09:28:55;;;;;;;58.53;22.73;;;;;;;-1.16;100.00;99171.28;5152932;27;20053;-58
2021/12/06 09:31:22;;;;;;;55.58;23.08;;;;;;;-1.22;100.00;99153.59;5152541;27;20082;-57
2021/12/06 09:33:48;;;;;;;62.05;23.08;;;;;;;-1.20;100.00;99146.00;5152511;27;20078;-59
2021/12/06 09:36:15;;;;;;;56.25;22.60;;;;;;;-1.13;100.00;99149.19;5152504;27;20564;-59
2021/12/06 09:38:44;;;;;;;56.78;21.77;;;;;;;-1.12;100.00;99149.97;5151652;27;20050;-57
2021/12/06 09:41:13;;;;;;;53.05;21.63;;;;;;;-1.09;100.00;99157.47;5152309;27;20115;-59
2021/12/06 09:43:41;;;;;;;58.20;23.15;;;;;;;-0.96;100.00;99154.09;5152274;27;20047;-59
2021/12/06 09:46:10;;;;;;;55.28;23.95;;;;;;;-0.86;100.00;99145.06;5152164;27;20058;-58
2021/12/06 09:48:38;;;;;;;57.60;22.42;;;;;;;-0.96;100.00;99144.13;5152157;27;20092;-60
2021/12/06 09:51:09;;;;;;;53.28;21.48;;;;;;;-0.83;100.00;99150.69;5151712;27;20047;-59
2021/12/06 09:53:39;;;;;;;47.58;22.80;;;;;;;-0.84;100.00;99153.66;5152425;27;20141;-59
2021/12/06 09:56:09;;;;;;;47.47;20.45;;;;;;;-0.74;100.00;99153.50;5151887;27;20057;-60
2021/12/06 09:58:36;;;;;;;45.58;20.52;;;;;;;-0.67;100.00;99151.25;5152196;27;20140;-59
2021/12/06 10:01:08;;;;;;;50.08;20.83;;;;;;;-0.63;100.00;99159.53;5152102;27;20050;-58
2021/12/06 10:03:36;;;;;;;41.85;18.60;;;;;;;-0.70;100.00;99170.66;5151827;27;20326;-59
2021/12/06 10:06:04;;;;;;;45.55;19.55;;;;;;;-0.77;100.00;99154.91;5151713;27;20126;-60
2021/12/06 10:08:32;;;;;;;44.75;18.75;;;;;;;-0.66;100.00;99155.56;5151450;27;20047;-54
2021/12/06 10:10:59;;;;;;;50.90;21.95;;;;;;;-0.74;100.00;99159.69;5151938;27;20087;-60
2021/12/06 10:13:25;;;;;;;50.30;20.17;;;;;;;-0.62;100.00;99151.19;5147146;27;20132;-60
2021/12/06 10:15:52;;;;;;;45.08;19.58;;;;;;;-0.42;100.00;99155.47;5151945;27;20114;-60
2021/12/06 10:18:20;;;;;;;48.28;18.98;;;;;;;-0.53;100.00;99140.56;5151015;27;20051;-60
2021/12/06 10:20:48;;;;;;;43.85;20.20;;;;;;;-0.61;100.00;99150.09;5130899;28;20085;-60
2021/12/06 10:23:16;;;;;;;48.53;19.23;;;;;;;-0.59;100.00;99150.59;5131235;27;20047;-59
2021/12/06 10:25:47;;;;;;;43.53;19.13;;;;;;;-0.66;100.00;99149.38;5130917;28;20047;-60
2021/12/06 10:28:15;;;;;;;45.78;19.50;;;;;;;-0.72;100.00;99152.13;5131406;28;20059;-60
2021/12/06 10:30:43;;;;;;;40.70;17.50;;;;;;;-0.65;100.00;99161.75;5130596;28;20111;-60
2021/12/06 10:33:12;;;;;;;47.65;19.75;;;;;;;-0.79;100.00;99170.53;5130431;27;20107;-60
2021/12/06 10:35:40;;;;;;;41.47;18.27;;;;;;;-0.75;100.00;99168.84;5130345;27;20435;-60
2021/12/06 10:38:07;;;;;;;41.90;18.58;;;;;;;-0.74;100.00;99175.84;5130937;27;20547;-59
2021/12/06 10:40:36;;;;;;;44.25;19.52;;;;;;;-0.59;100.00;99166.75;5130911;28;20143;-60
2021/12/06 10:43:06;;;;;;;42.28;17.48;;;;;;;-0.62;100.00;99175.41;5130724;28;20143;-55
2021/12/06 10:45:35;;;;;;;40.63;18.17;;;;;;;-0.66;100.00;99177.09;5130614;27;20519;-59
2021/12/06 10:48:11;;;;;;;43.03;17.90;;;;;;;-0.84;100.00;99169.78;5130378;27;20483;-60
2021/12/06 10:50:40;;;;;;;42.88;18.73;;;;;;;-0.75;100.00;99179.63;5130776;27;20050;-60
2021/12/06 10:53:06;;;;;;;37.83;17.45;;;;;;;-0.80;100.00;99179.72;5130498;27;20058;-60
2021/12/06 10:55:34;;;;;;;36.95;17.58;;;;;;;-0.80;100.00;99185.09;5130397;27;20447;-60
2021/12/06 10:58:03;;;;;;;37.80;16.98;;;;;;;-0.72;100.00;99179.06;5130294;27;20053;-60
2021/12/06 11:00:42;;;;;;;41.30;16.90;;;;;;;-0.70;100.00;99176.06;5148939;27;20058;-60
2021/12/06 11:03:29;;;;;;;70.05;18.30;;;;;;;-0.70;100.00;99176.06;5150509;27;20050;-60
2021/12/06 11:05:59;;;;;;;39.70;18.02;;;;;;;-0.59;100.00;99168.66;5150572;27;20085;-60
2021/12/06 11:08:27;;;;;;;39.42;17.15;;;;;;;-0.54;100.00;99165.88;5150783;27;20058;-60
2021/12/06 11:10:57;;;;;;;42.35;18.20;;;;;;;-0.54;100.00;99168.56;5150371;27;20141;-60
2021/12/06 11:13:27;;;;;;;41.70;17.90;;;;;;;-0.60;100.00;99158.97;5148480;27;20043;-59
2021/12/06 11:16:10;;;;;;;40.30;18.13;;;;;;;-0.61;100.00;99143.91;5150378;27;20466;-60